Main page
METAR-TAF:

METAR-TAF

Airports :

Chhatrapati Shivaji International Airport

Mumbai, India

latitude: 19-07N, longitude: 072-51E, elevation: 8 m

Current weather observation

The report was made 21 minutes ago, at 01:00 UTC
Calm wind
Temperature 28°C
Humidity 79%
Pressure 1010 hPa
Visibility: 2500 m
mist

METAR: VABB 240100Z 00000KT 2500 BR NSC 28/24 Q1010 NOSIG

Time: 06:51 (01:21 UTC)

Forecast

The report was made 2 hours and 21 minutes ago, at 23:00 UTC
Forecast valid from 24 at 00 UTC to 24 at 09 UTC
Wind 3 kt from variable directions
Visibility: 3000 m
Few clouds at a height of 2000 ft
haze
Becoming
from 24 at 01 UTC to 24 at 03 UTC
Wind 5 kt from the North/Northeast
Becoming
from 24 at 04 UTC to 24 at 06 UTC
Wind 10 kt from the West
Visibility: 4000 m
smoke
Becoming
from 24 at 07 UTC to 24 at 09 UTC
Visibility: 5000 m
smoke

TAF: VABB 232300Z 2400/2409 VRB03KT 3000 HZ FEW020 BECMG 2401/2403 03005KT BECMG 2404/2406 26010KT 4000 FU BECMG 2407/2409 5000 FU NSC

Weather observations and forecasts of more than 4000 airports (METAR and TAF reports).

The available stations are represented by yellow and red dots on the map.

Hover mouse over dot to see the name of the station.

Then click to see weather observations and forecasts.

To change the map : click on the green buttons with a black cross to zoom in, on the green button with a dash to zoom out, or on the green arrows for adjacent maps.


METAR-TAF: